Pleasant Green, Utah
Current Conditions -  °F | °C
As of 10:53 AM on Friday 24 Oct 2014 (Local Time) from KSLC Reporting Station
Clear Clear  
Wind Chill: 64°   Ceiling: Unl
Heat Index: 64°   Visibility: 10mi
Dew Point: 38°   Wind: 0mph
Humidity: 38%   Direction: NA
Pressure: 30.18"   Gusts: NA
Location:  40.7034°N, 112.112°W
Report Text: KSLC 241653Z 00000KT 10SM CLR 18/03 A3018 RMK AO2 SLP189 T01780033
Loading
Personal Weather Stations






























Interactive Weather Map
Tropical Storm Tracking
New forecast layout! Learn more

10-Day Weather Forecast

Advertisements
Track Severe Weather on mobile